Time;durP1;ratioP1;P1;durP2;ratioP2;P2;SDS_P1;SDS_P2;PMS_P1;PMS_P2;Temp;Humidity;BMP_temperature;BMP_pressure;BME280_temperature;BME280_humidity;BME280_pressure;Samples;Min_cycle;Max_cycle;Signal;HPM_P1;HPM_P2
2023/07/29 00:00:44;;;;;;;4.57;2.72;;;;;;;28.83;47.65;99113.56;4899362;29;20013;-75
2023/07/29 00:03:10;;;;;;;4.38;2.95;;;;;;;28.80;47.66;99114.69;4899558;29;20040;-76
2023/07/29 00:05:37;;;;;;;4.07;3.08;;;;;;;28.80;47.85;99106.66;4899142;29;20104;-75
2023/07/29 00:08:02;;;;;;;4.07;3.10;;;;;;;28.80;47.75;99119.22;4899041;29;20641;-76
2023/07/29 00:10:30;;;;;;;3.90;2.85;;;;;;;28.79;47.93;99109.47;4899274;29;20103;-76
2023/07/29 00:12:58;;;;;;;4.28;3.17;;;;;;;28.78;47.91;99110.47;4888404;29;20055;-76
2023/07/29 00:15:23;;;;;;;4.05;2.75;;;;;;;28.80;48.04;99109.34;4898149;29;20033;-76
2023/07/29 00:17:49;;;;;;;4.68;2.92;;;;;;;28.79;47.82;99101.41;4890471;29;20088;-76
2023/07/29 00:20:15;;;;;;;4.95;3.17;;;;;;;28.79;48.26;99098.75;4897365;29;20366;-75
2023/07/29 00:22:40;;;;;;;4.43;3.28;;;;;;;28.80;47.83;99097.72;4890858;29;20422;-76
2023/07/29 00:25:06;;;;;;;4.47;2.90;;;;;;;28.78;48.18;99105.13;4894161;29;20128;-76
2023/07/29 00:27:31;;;;;;;4.57;3.08;;;;;;;28.78;48.23;99100.59;4899120;29;20076;-76
2023/07/29 00:29:57;;;;;;;4.22;3.28;;;;;;;28.80;48.06;99092.38;4898844;29;20076;-77
2023/07/29 00:32:22;;;;;;;4.53;3.08;;;;;;;28.77;48.31;99092.69;4898982;29;20031;-75
2023/07/29 00:34:47;;;;;;;4.35;3.05;;;;;;;28.77;48.34;99088.16;4898577;29;20028;-76
2023/07/29 00:37:13;;;;;;;4.60;2.80;;;;;;;28.76;48.14;99088.31;4894279;29;20025;-77
2023/07/29 00:39:39;;;;;;;5.28;3.65;;;;;;;28.75;48.43;99084.78;4883631;29;20029;-76
2023/07/29 00:42:05;;;;;;;4.57;3.40;;;;;;;28.76;48.35;99088.31;4888778;29;20029;-77
2023/07/29 00:44:31;;;;;;;4.13;2.88;;;;;;;28.75;48.18;99089.28;4903137;29;20028;-76
2023/07/29 00:46:57;;;;;;;4.47;3.00;;;;;;;28.74;48.09;99077.72;4898872;29;20031;-76
2023/07/29 00:49:23;;;;;;;3.83;2.78;;;;;;;28.74;48.43;99079.56;4897944;29;20025;-76
2023/07/29 00:51:49;;;;;;;5.18;3.30;;;;;;;28.73;48.08;99072.50;4894705;29;20058;-76
2023/07/29 00:54:14;;;;;;;4.50;2.92;;;;;;;28.73;48.21;99080.56;4892773;29;20397;-76
2023/07/29 00:56:40;;;;;;;3.85;2.97;;;;;;;28.74;48.31;99082.25;4898773;29;20513;-76
2023/07/29 00:59:06;;;;;;;4.20;3.10;;;;;;;28.70;48.15;99080.88;4898263;29;20519;-76
2023/07/29 01:01:32;;;;;;;4.28;3.00;;;;;;;28.65;48.30;99082.19;4898477;29;20405;-76
2023/07/29 01:03:58;;;;;;;3.65;2.60;;;;;;;28.66;48.33;99086.56;4897953;29;20035;-76
2023/07/29 01:06:50;;;;;;;3.75;2.63;;;;;;;28.67;48.21;99079.34;4882278;29;20693;-76
2023/07/29 01:09:25;;;;;;;3.97;2.70;;;;;;;28.67;48.38;99079.34;4896648;29;20679;-76
2023/07/29 01:11:50;;;;;;;4.22;2.97;;;;;;;28.65;48.29;99071.44;4886917;29;20057;-76
2023/07/29 01:14:15;;;;;;;4.40;3.20;;;;;;;28.65;48.49;99078.63;4893778;29;20040;-76
2023/07/29 01:16:50;;;;;;;5.00;3.30;;;;;;;28.64;48.36;99075.13;4898285;29;20143;-76
2023/07/29 01:19:54;;;;;;;5.35;3.53;;;;;;;28.65;48.25;99078.63;4897809;29;20061;-75
2023/07/29 01:22:21;;;;;;;3.65;2.60;;;;;;;28.64;48.35;99077.81;4894234;29;20029;-75
2023/07/29 01:24:46;;;;;;;4.40;3.20;;;;;;;28.64;48.16;99077.81;4884295;29;20053;-76
2023/07/29 01:27:12;;;;;;;5.47;3.30;;;;;;;28.64;48.17;99077.81;4897897;29;20113;-75
2023/07/29 01:29:37;;;;;;;4.82;3.42;;;;;;;28.64;48.26;99072.44;4893873;29;20045;-76
2023/07/29 01:32:10;;;;;;;5.20;3.53;;;;;;;28.65;48.45;99068.75;4896456;29;20151;-76
2023/07/29 01:34:45;;;;;;;5.10;3.50;;;;;;;28.63;48.44;99078.81;4897826;29;20021;-76
2023/07/29 01:37:16;;;;;;;4.90;3.15;;;;;;;28.63;48.37;99086.88;4898015;29;20071;-76
2023/07/29 01:39:45;;;;;;;4.75;3.22;;;;;;;28.61;48.70;99083.47;4897840;29;20493;-76
2023/07/29 01:42:11;;;;;;;4.00;2.80;;;;;;;28.61;48.63;99088.03;4896217;29;20088;-76
2023/07/29 01:44:36;;;;;;;4.43;2.85;;;;;;;28.58;48.38;99086.47;4897385;29;20025;-76
2023/07/29 01:47:02;;;;;;;4.22;2.88;;;;;;;28.58;48.41;99088.31;4896936;29;20035;-76
2023/07/29 01:49:27;;;;;;;4.05;2.95;;;;;;;28.54;48.19;99080.59;4897399;29;20545;-76
2023/07/29 01:51:53;;;;;;;3.92;2.95;;;;;;;28.55;48.43;99078.72;4897129;29;20080;-76
2023/07/29 01:54:18;;;;;;;4.63;2.97;;;;;;;28.53;48.38;99072.69;4897165;29;20088;-76
2023/07/29 01:56:43;;;;;;;4.15;2.95;;;;;;;28.51;48.24;99075.50;4895952;29;20032;-76
2023/07/29 01:59:09;;;;;;;4.28;2.95;;;;;;;28.49;48.42;99073.97;4895051;29;20028;-76
2023/07/29 02:01:34;;;;;;;3.97;2.75;;;;;;;28.48;48.26;99061.56;4896855;29;20031;-76
2023/07/29 02:04:00;;;;;;;4.13;3.00;;;;;;;28.48;48.35;99056.19;4897247;29;20478;-77
2023/07/29 02:06:26;;;;;;;4.13;2.83;;;;;;;28.51;48.42;99053.19;4897037;29;20020;-76
2023/07/29 02:08:52;;;;;;;4.75;3.10;;;;;;;28.52;48.39;99062.94;4896860;29;20049;-76
2023/07/29 02:11:20;;;;;;;4.22;3.00;;;;;;;28.48;48.53;99056.19;4897137;29;20028;-76
2023/07/29 02:13:45;;;;;;;4.55;3.17;;;;;;;28.45;48.60;99059.16;4896991;29;20024;-77
2023/07/29 02:16:11;;;;;;;4.28;2.85;;;;;;;28.41;48.46;99051.44;4896655;29;20036;-76
2023/07/29 02:18:37;;;;;;;4.55;2.80;;;;;;;28.38;48.52;99054.41;4896707;29;20035;-76
2023/07/29 02:21:02;;;;;;;3.83;2.70;;;;;;;28.35;48.57;99052.03;4895615;29;20075;-76
2023/07/29 02:23:28;;;;;;;3.80;2.80;;;;;;;28.33;48.52;99051.34;4896943;29;20489;-76
2023/07/29 02:25:53;;;;;;;4.25;2.83;;;;;;;28.32;48.85;99041.59;4896750;29;20105;-77
2023/07/29 02:28:19;;;;;;;3.95;2.88;;;;;;;28.31;48.55;99047.97;4896828;29;20036;-77
2023/07/29 02:30:44;;;;;;;3.50;2.42;;;;;;;28.30;48.87;99043.59;4896418;29;20024;-76
2023/07/29 02:33:10;;;;;;;4.40;3.08;;;;;;;28.29;48.43;99041.91;4896727;29;20119;-76
2023/07/29 02:35:35;;;;;;;4.10;2.97;;;;;;;28.28;48.36;99040.25;4895327;29;20024;-76
2023/07/29 02:38:01;;;;;;;3.72;2.60;;;;;;;28.27;48.50;99033.16;4896639;29;20442;-76
2023/07/29 02:40:28;;;;;;;3.90;2.78;;;;;;;28.25;48.57;99027.13;4892312;29;20029;-76
2023/07/29 02:42:53;;;;;;;4.13;2.90;;;;;;;28.24;48.71;99028.13;4896266;29;20024;-76
2023/07/29 02:45:18;;;;;;;3.65;2.72;;;;;;;28.24;48.56;99025.44;4896286;29;20032;-76
2023/07/29 02:47:44;;;;;;;4.07;3.10;;;;;;;28.25;48.62;99029.78;4896580;29;20047;-75
2023/07/29 02:50:09;;;;;;;4.22;3.25;;;;;;;28.23;48.83;99024.56;4896295;29;20064;-76
2023/07/29 02:52:34;;;;;;;4.40;2.92;;;;;;;28.22;48.77;99024.72;4892144;29;20076;-76
2023/07/29 02:55:00;;;;;;;3.85;2.70;;;;;;;28.21;48.53;99017.66;4896695;29;20063;-76
2023/07/29 02:57:25;;;;;;;3.92;2.63;;;;;;;28.20;48.85;99021.31;4896472;29;20443;-75
2023/07/29 02:59:51;;;;;;;4.00;2.65;;;;;;;28.18;48.85;99018.78;4896138;29;20032;-76
2023/07/29 03:02:16;;;;;;;3.80;2.70;;;;;;;28.18;48.67;99017.97;4896641;29;20028;-76
2023/07/29 03:04:41;;;;;;;3.92;2.65;;;;;;;28.17;48.46;99016.28;4898026;29;20549;-76
2023/07/29 03:07:07;;;;;;;4.35;2.85;;;;;;;28.17;48.87;99016.28;4900337;29;20039;-76
2023/07/29 03:09:33;;;;;;;4.30;2.78;;;;;;;28.14;48.65;99017.44;4900152;29;20040;-76
2023/07/29 03:11:59;;;;;;;4.57;2.95;;;;;;;28.13;48.62;99016.56;4900138;29;20029;-77
2023/07/29 03:14:24;;;;;;;3.60;2.70;;;;;;;28.12;48.93;99014.88;4899852;29;20044;-75
2023/07/29 03:16:50;;;;;;;4.05;2.90;;;;;;;28.13;48.86;99011.22;4900177;29;20029;-76
2023/07/29 03:19:16;;;;;;;4.68;3.38;;;;;;;28.13;48.59;99013.88;4900210;29;20032;-76
2023/07/29 03:21:41;;;;;;;4.10;3.00;;;;;;;28.11;48.63;99012.34;4900053;29;20043;-76
2023/07/29 03:24:07;;;;;;;3.90;2.78;;;;;;;28.10;48.39;99014.22;4899957;29;20028;-76
2023/07/29 03:26:32;;;;;;;3.78;2.75;;;;;;;28.09;48.47;99015.19;4900081;29;20028;-76
2023/07/29 03:28:58;;;;;;;4.57;2.72;;;;;;;28.09;48.44;99012.50;4898308;29;20028;-76
2023/07/29 03:31:23;;;;;;;4.15;2.95;;;;;;;28.09;48.66;99011.66;4900093;29;20017;-76
2023/07/29 03:33:48;;;;;;;4.38;3.00;;;;;;;28.09;48.37;99012.50;4899905;29;20043;-75
2023/07/29 03:36:15;;;;;;;4.35;2.85;;;;;;;28.09;48.53;99014.34;4899975;29;20020;-76
2023/07/29 03:38:41;;;;;;;3.95;2.70;;;;;;;28.07;48.79;99009.13;4898587;29;20035;-76
2023/07/29 03:41:09;;;;;;;4.03;2.83;;;;;;;28.06;48.79;99004.78;4899678;29;20021;-75
2023/07/29 03:43:34;;;;;;;3.70;2.72;;;;;;;28.07;48.64;99005.59;4899178;29;20040;-76
2023/07/29 03:46:00;;;;;;;3.97;2.75;;;;;;;28.06;48.51;99011.97;4899206;29;20028;-76
2023/07/29 03:48:26;;;;;;;3.63;2.50;;;;;;;28.05;48.76;99008.44;4899593;29;20024;-76
2023/07/29 03:50:51;;;;;;;4.00;2.78;;;;;;;28.06;48.54;99004.78;4899471;29;20032;-76
2023/07/29 03:53:17;;;;;;;3.60;2.67;;;;;;;28.07;48.50;99005.59;4899435;29;20116;-75
2023/07/29 03:55:43;;;;;;;4.18;2.88;;;;;;;28.07;48.72;99001.09;4899533;29;20068;-76
2023/07/29 03:58:08;;;;;;;4.22;3.08;;;;;;;28.07;48.56;99002.91;4897896;29;20120;-76
2023/07/29 04:00:33;;;;;;;4.25;2.85;;;;;;;28.07;48.39;99006.44;4899336;29;20017;-76
2023/07/29 04:02:59;;;;;;;4.90;3.20;;;;;;;28.10;48.59;99006.16;4899401;29;20017;-75
2023/07/29 04:05:24;;;;;;;3.75;2.50;;;;;;;28.08;48.23;99008.13;4894842;29;20060;-76
2023/07/29 04:07:50;;;;;;;4.18;2.88;;;;;;;28.07;48.38;99006.44;4899229;29;20024;-75
2023/07/29 04:10:15;;;;;;;4.03;2.67;;;;;;;28.08;48.48;99001.94;4898924;29;20383;-76
2023/07/29 04:12:41;;;;;;;3.67;2.70;;;;;;;28.10;48.40;99011.53;4894438;29;20068;-76
2023/07/29 04:15:07;;;;;;;3.75;2.70;;;;;;;28.09;48.37;99004.44;4894811;29;20076;-75
2023/07/29 04:17:32;;;;;;;3.92;2.60;;;;;;;28.11;48.55;99010.53;4898902;29;20060;-76
2023/07/29 04:19:58;;;;;;;3.40;2.60;;;;;;;28.13;48.54;99011.22;4899171;29;20059;-77
2023/07/29 04:22:23;;;;;;;4.22;3.05;;;;;;;28.14;48.13;99012.88;4894552;29;20060;-76
2023/07/29 04:24:48;;;;;;;4.25;3.08;;;;;;;28.13;48.25;99011.22;4898789;29;20028;-76
2023/07/29 04:27:14;;;;;;;3.78;2.53;;;;;;;28.14;48.46;99012.88;4898629;29;20061;-75
2023/07/29 04:29:39;;;;;;;4.18;3.03;;;;;;;28.14;48.49;99018.25;4898699;29;20036;-76
2023/07/29 04:32:05;;;;;;;5.32;3.40;;;;;;;28.14;48.40;99017.44;4898826;29;20037;-76
2023/07/29 04:34:31;;;;;;;4.50;3.10;;;;;;;28.13;48.62;99016.56;4898854;29;20059;-76
2023/07/29 04:36:57;;;;;;;5.10;3.50;;;;;;;28.12;48.62;99012.22;4898778;29;20462;-76
2023/07/29 04:39:22;;;;;;;3.78;3.00;;;;;;;28.13;48.82;99013.06;4894207;29;20555;-76
2023/07/29 04:41:48;;;;;;;5.22;3.30;;;;;;;28.13;48.53;99019.25;4898177;29;20029;-75
2023/07/29 04:44:13;;;;;;;4.00;2.95;;;;;;;28.12;48.82;99017.56;4896844;29;20039;-76
2023/07/29 04:46:39;;;;;;;4.43;3.08;;;;;;;28.12;48.58;99014.88;4898511;29;20020;-76
2023/07/29 04:49:05;;;;;;;5.47;3.45;;;;;;;28.09;48.38;99025.91;4898469;29;20024;-76
2023/07/29 04:51:31;;;;;;;3.95;3.17;;;;;;;28.07;48.54;99019.00;4898418;29;20028;-76
2023/07/29 04:53:57;;;;;;;4.88;3.25;;;;;;;28.05;48.64;99019.19;4898347;29;20030;-76
2023/07/29 04:56:22;;;;;;;4.45;3.38;;;;;;;28.01;48.82;99017.78;4897988;29;20025;-76
2023/07/29 04:58:48;;;;;;;4.50;2.97;;;;;;;28.03;48.41;99020.31;4898324;29;20024;-76
2023/07/29 05:01:13;;;;;;;3.88;2.75;;;;;;;28.00;48.64;99016.94;4898299;29;20028;-76
2023/07/29 05:03:39;;;;;;;4.43;2.95;;;;;;;27.98;48.73;99020.75;4898109;29;20060;-76
2023/07/29 05:06:05;;;;;;;4.10;2.80;;;;;;;27.98;48.65;99018.06;4898344;29;20021;-76
2023/07/29 05:08:31;;;;;;;4.18;2.90;;;;;;;27.96;48.77;99026.28;4896840;29;20041;-76
2023/07/29 05:10:57;;;;;;;4.25;2.78;;;;;;;27.95;48.58;99023.75;4897781;29;20024;-76
2023/07/29 05:13:22;;;;;;;3.92;2.92;;;;;;;27.92;48.80;99019.53;4897969;29;20032;-76
2023/07/29 05:15:49;;;;;;;4.18;3.10;;;;;;;27.94;48.60;99022.88;4898001;29;20033;-76
2023/07/29 05:18:15;;;;;;;3.60;2.58;;;;;;;27.93;48.93;99020.38;4897966;29;20028;-75
2023/07/29 05:20:40;;;;;;;4.13;2.97;;;;;;;27.93;48.94;99017.69;4897944;29;20072;-76
2023/07/29 05:23:06;;;;;;;4.13;2.63;;;;;;;27.94;48.63;99019.38;4897797;29;20020;-76
2023/07/29 05:25:32;;;;;;;4.35;2.88;;;;;;;27.93;48.58;99023.06;4897485;29;20028;-76
2023/07/29 05:27:57;;;;;;;4.32;2.88;;;;;;;27.93;48.95;99020.38;4897316;29;20489;-76
2023/07/29 05:30:23;;;;;;;4.22;2.90;;;;;;;27.93;48.80;99021.22;4897707;29;20024;-76
2023/07/29 05:32:48;;;;;;;4.00;2.80;;;;;;;27.94;48.58;99022.06;4896361;29;20061;-75
2023/07/29 05:35:14;;;;;;;5.22;3.08;;;;;;;27.91;48.62;99023.22;4893253;29;20171;-76
2023/07/29 05:37:40;;;;;;;3.97;2.55;;;;;;;27.92;48.60;99024.03;4892094;29;20032;-77
2023/07/29 05:40:06;;;;;;;4.53;3.15;;;;;;;27.94;48.88;99022.88;4897106;29;20036;-77
2023/07/29 05:42:32;;;;;;;4.45;3.20;;;;;;;27.92;48.59;99019.53;4897463;29;20024;-76
2023/07/29 05:44:58;;;;;;;4.07;2.92;;;;;;;27.94;48.56;99022.06;4897447;29;20038;-76
2023/07/29 05:47:23;;;;;;;4.43;3.03;;;;;;;27.92;48.88;99024.03;4897482;29;20076;-76
2023/07/29 05:49:48;;;;;;;4.38;3.13;;;;;;;27.94;48.58;99016.72;4897640;29;20027;-75
2023/07/29 05:52:15;;;;;;;3.72;2.78;;;;;;;27.93;48.67;99021.22;4897352;29;20497;-77
2023/07/29 05:54:40;;;;;;;3.53;2.75;;;;;;;27.93;48.94;99023.06;4896918;29;20076;-76
2023/07/29 05:57:06;;;;;;;4.45;3.00;;;;;;;27.95;48.49;99021.94;4896967;29;20036;-76
2023/07/29 05:59:31;;;;;;;3.78;2.70;;;;;;;27.94;48.63;99022.06;4897328;29;20470;-76
2023/07/29 06:01:56;;;;;;;3.65;2.53;;;;;;;27.95;48.75;99023.75;4897319;29;20096;-76
2023/07/29 06:04:22;;;;;;;4.15;3.13;;;;;;;27.97;48.81;99013.72;4896856;29;20024;-76
2023/07/29 06:06:48;;;;;;;4.05;2.75;;;;;;;27.95;48.87;99015.72;4897008;29;20031;-76
2023/07/29 06:09:13;;;;;;;4.35;2.97;;;;;;;27.96;48.54;99009.34;4895388;29;20413;-75
2023/07/29 06:11:38;;;;;;;4.40;2.83;;;;;;;27.95;48.85;99018.38;4896877;29;20025;-76
2023/07/29 06:14:04;;;;;;;4.30;2.90;;;;;;;27.96;48.45;99025.44;4896871;29;20028;-76
2023/07/29 06:16:29;;;;;;;4.53;3.10;;;;;;;27.98;48.80;99023.44;4893069;29;20020;-76
2023/07/29 06:18:55;;;;;;;5.22;3.38;;;;;;;27.96;48.84;99031.66;4897061;29;20063;-76
2023/07/29 06:21:20;;;;;;;4.13;3.17;;;;;;;27.98;48.80;99023.44;4896944;29;20040;-76
2023/07/29 06:23:46;;;;;;;4.20;2.90;;;;;;;27.98;48.83;99028.78;4896440;29;20032;-77
2023/07/29 06:26:12;;;;;;;4.68;3.08;;;;;;;27.98;48.86;99034.16;4896763;29;20124;-76
2023/07/29 06:28:37;;;;;;;4.60;2.90;;;;;;;28.00;48.40;99033.00;4896945;29;20490;-77
2023/07/29 06:31:03;;;;;;;4.57;3.13;;;;;;;27.99;48.59;99039.38;4896802;29;20028;-77
2023/07/29 06:33:28;;;;;;;5.13;3.28;;;;;;;27.99;48.43;99041.22;4896759;29;20039;-77
2023/07/29 06:35:54;;;;;;;5.85;2.92;;;;;;;27.99;48.82;99035.88;4896675;29;20062;-77
2023/07/29 06:38:21;;;;;;;4.63;3.25;;;;;;;27.97;48.81;99043.19;4896236;29;20033;-76
2023/07/29 06:40:48;;;;;;;3.72;2.80;;;;;;;27.97;48.89;99045.88;4896611;29;20047;-76
2023/07/29 06:43:13;;;;;;;3.60;2.55;;;;;;;27.97;48.61;99044.06;4896543;29;20035;-77
2023/07/29 06:45:39;;;;;;;4.20;2.83;;;;;;;28.00;48.71;99048.28;4896308;29;20391;-77
2023/07/29 06:48:04;;;;;;;3.90;2.70;;;;;;;27.98;48.59;99039.53;4896402;29;20036;-76
2023/07/29 06:50:29;;;;;;;3.67;2.65;;;;;;;28.00;48.41;99049.09;4896610;29;20029;-77
2023/07/29 06:52:55;;;;;;;3.95;2.80;;;;;;;28.01;48.53;99049.97;4896306;29;20027;-77
2023/07/29 06:55:20;;;;;;;3.90;2.80;;;;;;;28.01;48.97;99052.66;4892540;29;20553;-77
2023/07/29 06:57:46;;;;;;;4.50;3.00;;;;;;;28.00;48.83;99046.44;4896614;29;20025;-77
2023/07/29 07:00:11;;;;;;;4.15;3.03;;;;;;;28.02;48.71;99051.66;4896404;29;20485;-77
2023/07/29 07:02:37;;;;;;;4.53;3.00;;;;;;;28.00;48.91;99046.44;4896652;29;20121;-76
2023/07/29 07:05:02;;;;;;;4.25;2.97;;;;;;;28.02;48.75;99046.28;4896406;29;20029;-77
2023/07/29 07:07:27;;;;;;;4.45;2.97;;;;;;;28.03;48.99;99044.47;4895985;29;20467;-77
2023/07/29 07:09:53;;;;;;;4.60;2.75;;;;;;;28.02;48.93;99051.66;4896535;29;20056;-76
2023/07/29 07:12:19;;;;;;;4.55;3.17;;;;;;;28.03;48.70;99058.69;4896577;29;20088;-77
2023/07/29 07:14:44;;;;;;;4.00;2.92;;;;;;;28.01;48.65;99058.88;4896383;29;20466;-77
2023/07/29 07:17:09;;;;;;;4.78;3.50;;;;;;;27.99;49.12;99052.78;4896503;29;20060;-77
2023/07/29 07:19:35;;;;;;;4.82;3.58;;;;;;;28.01;48.88;99060.69;4895067;29;20020;-77
2023/07/29 07:22:00;;;;;;;4.10;3.10;;;;;;;28.01;48.81;99052.66;4896019;29;20032;-76
2023/07/29 07:24:26;;;;;;;4.38;3.38;;;;;;;28.02;48.65;99051.66;4895107;29;20040;-77
2023/07/29 07:26:51;;;;;;;4.55;3.10;;;;;;;28.03;48.63;99057.88;4896224;29;20083;-77
2023/07/29 07:29:17;;;;;;;4.22;2.83;;;;;;;28.03;49.02;99058.69;4896286;29;20025;-77
2023/07/29 07:31:51;;;;;;;4.38;2.90;;;;;;;28.05;49.04;99062.09;4895704;29;20393;-76
2023/07/29 07:34:16;;;;;;;4.30;3.05;;;;;;;28.06;48.97;99055.72;4892877;29;20149;-76
2023/07/29 07:36:41;;;;;;;4.03;3.05;;;;;;;28.06;49.05;99058.41;4895810;29;20057;-77
2023/07/29 07:39:07;;;;;;;4.43;3.40;;;;;;;28.09;48.65;99059.94;4896444;29;20099;-76
2023/07/29 07:41:32;;;;;;;3.83;2.80;;;;;;;28.08;48.67;99056.41;4896089;29;20020;-77
2023/07/29 07:43:57;;;;;;;3.90;3.20;;;;;;;28.09;48.95;99063.44;4896191;29;20029;-77
2023/07/29 07:46:23;;;;;;;4.13;3.13;;;;;;;28.09;48.77;99066.13;4896221;29;20031;-77
2023/07/29 07:48:48;;;;;;;3.97;3.00;;;;;;;28.11;48.87;99061.47;4896101;29;20541;-76
2023/07/29 07:51:14;;;;;;;4.47;3.38;;;;;;;28.12;48.53;99057.81;4898445;29;20545;-77
2023/07/29 07:53:40;;;;;;;4.82;3.25;;;;;;;28.13;48.70;99059.47;4899387;29;20512;-77
2023/07/29 07:56:06;;;;;;;4.93;3.25;;;;;;;28.15;48.56;99062.84;4899536;29;20053;-77
2023/07/29 07:58:32;;;;;;;3.90;3.03;;;;;;;28.17;48.48;99067.25;4899354;29;20099;-77
2023/07/29 08:01:05;;;;;;;3.95;2.92;;;;;;;28.17;48.71;99069.94;4899389;29;20040;-77
2023/07/29 08:03:30;;;;;;;4.55;3.17;;;;;;;28.19;48.42;99070.59;4899006;29;20128;-77
2023/07/29 08:05:56;;;;;;;4.90;3.20;;;;;;;28.20;48.34;99078.50;4899276;29;20111;-76
2023/07/29 08:08:21;;;;;;;4.55;3.33;;;;;;;28.20;48.64;99074.97;4899114;29;20032;-77
2023/07/29 08:10:47;;;;;;;4.28;3.10;;;;;;;28.21;48.34;99074.84;4899200;29;20033;-77
2023/07/29 08:13:12;;;;;;;5.85;3.33;;;;;;;28.22;48.43;99067.63;4897828;29;20025;-76
2023/07/29 08:15:37;;;;;;;4.25;2.90;;;;;;;28.23;48.66;99069.34;4899109;29;20115;-77
2023/07/29 08:18:03;;;;;;;4.00;3.10;;;;;;;28.22;48.30;99075.69;4898745;29;20020;-76
2023/07/29 08:20:28;;;;;;;5.63;3.70;;;;;;;28.25;48.32;99070.03;4899127;29;20031;-77
2023/07/29 08:22:54;;;;;;;4.68;3.42;;;;;;;28.25;48.50;99070.88;4899094;29;20043;-76
2023/07/29 08:25:19;;;;;;;4.25;3.25;;;;;;;28.24;48.38;99065.66;4898666;29;20035;-77
2023/07/29 08:27:45;;;;;;;4.53;2.92;;;;;;;28.26;48.55;99069.03;4899064;29;20074;-77
2023/07/29 08:30:10;;;;;;;4.57;3.25;;;;;;;28.27;48.57;99060.84;4898861;29;20371;-75
2023/07/29 08:32:36;;;;;;;5.40;3.58;;;;;;;28.28;48.61;99067.06;4898108;29;20029;-77
2023/07/29 08:35:01;;;;;;;5.47;3.75;;;;;;;28.28;48.62;99067.91;4894793;29;20027;-76
2023/07/29 08:37:27;;;;;;;4.90;3.83;;;;;;;28.29;48.54;99068.75;4897490;29;20024;-76
2023/07/29 08:39:53;;;;;;;4.60;3.35;;;;;;;28.29;48.33;99068.75;4898619;29;20024;-77
2023/07/29 08:42:20;;;;;;;4.88;3.33;;;;;;;28.30;48.55;99075.78;4894230;29;20036;-76
2023/07/29 08:44:49;;;;;;;4.57;3.10;;;;;;;28.31;48.32;99065.91;4898028;29;20036;-76
2023/07/29 08:47:14;;;;;;;4.53;3.38;;;;;;;28.31;48.43;99065.91;4894275;29;20485;-77
2023/07/29 08:49:41;;;;;;;4.60;3.38;;;;;;;28.31;48.58;99072.13;4898630;29;20031;-77
2023/07/29 08:52:07;;;;;;;4.68;3.20;;;;;;;28.32;48.46;99071.09;4898559;29;20504;-77
2023/07/29 08:54:33;;;;;;;4.65;3.30;;;;;;;28.35;48.36;99078.88;4898450;29;20036;-77
2023/07/29 08:56:59;;;;;;;3.97;3.08;;;;;;;28.36;48.23;99069.81;4898372;29;20499;-76
2023/07/29 08:59:26;;;;;;;4.60;3.10;;;;;;;28.36;48.33;99072.50;4898387;29;20028;-77
2023/07/29 09:01:55;;;;;;;4.40;3.13;;;;;;;28.36;48.51;99067.13;4897030;29;20064;-77
2023/07/29 09:04:20;;;;;;;4.70;3.50;;;;;;;28.38;48.09;99067.81;4898265;29;20111;-76
2023/07/29 09:06:50;;;;;;;4.32;3.35;;;;;;;28.39;48.56;99066.00;4898160;29;20481;-77
2023/07/29 09:09:15;;;;;;;4.40;3.17;;;;;;;28.40;48.19;99068.53;4898128;29;20127;-77
2023/07/29 09:11:40;;;;;;;4.57;3.10;;;;;;;28.41;48.30;99058.63;4898173;29;20052;-77
2023/07/29 09:14:06;;;;;;;5.82;3.70;;;;;;;28.43;48.06;99067.38;4898084;29;20171;-75
2023/07/29 09:16:33;;;;;;;5.40;3.42;;;;;;;28.44;48.34;99065.53;4898155;29;20381;-77
2023/07/29 09:19:01;;;;;;;5.20;3.47;;;;;;;28.46;48.32;99063.56;4898174;29;20573;-77
2023/07/29 09:21:28;;;;;;;4.60;3.17;;;;;;;28.47;48.40;99062.56;4898126;29;20025;-76
2023/07/29 09:23:54;;;;;;;4.43;3.45;;;;;;;28.46;48.46;99055.50;4898045;29;20098;-76
2023/07/29 09:26:27;;;;;;;4.32;2.88;;;;;;;28.47;48.02;99058.00;4896663;29;20020;-77
2023/07/29 09:28:54;;;;;;;5.10;3.20;;;;;;;28.49;48.24;99064.09;4898003;29;20410;-76
2023/07/29 09:31:27;;;;;;;4.70;3.00;;;;;;;28.50;48.21;99054.19;4897736;29;20033;-77
2023/07/29 09:34:00;;;;;;;4.85;3.20;;;;;;;28.50;48.35;99060.41;4898077;29;20021;-77
2023/07/29 09:36:26;;;;;;;4.60;3.35;;;;;;;28.53;48.31;99056.56;4894121;29;20378;-77
2023/07/29 09:38:56;;;;;;;4.57;2.90;;;;;;;28.53;48.37;99059.25;4897510;29;20021;-77
2023/07/29 09:41:27;;;;;;;4.10;2.85;;;;;;;28.54;48.34;99066.31;4896516;29;20438;-77
2023/07/29 09:44:00;;;;;;;5.28;3.10;;;;;;;28.56;48.18;99069.66;4897516;29;20020;-76
2023/07/29 09:46:35;;;;;;;3.63;2.72;;;;;;;28.56;48.04;99064.31;4897371;29;20077;-77
2023/07/29 09:49:05;;;;;;;4.60;3.22;;;;;;;28.57;48.42;99063.31;4885432;29;20044;-76
2023/07/29 09:51:31;;;;;;;4.25;3.20;;;;;;;28.58;48.09;99067.69;4897331;29;20025;-77
2023/07/29 09:53:58;;;;;;;4.80;3.42;;;;;;;28.59;48.40;99066.69;4897088;29;20027;-77
2023/07/29 09:56:26;;;;;;;4.50;3.47;;;;;;;28.60;48.07;99060.31;4892647;29;20397;-77
2023/07/29 09:58:52;;;;;;;3.92;2.92;;;;;;;28.62;47.94;99068.22;4897519;29;20040;-77
2023/07/29 10:01:18;;;;;;;4.13;3.15;;;;;;;28.62;48.15;99069.06;4897136;29;20021;-77
2023/07/29 10:03:45;;;;;;;4.03;3.13;;;;;;;28.63;48.02;99060.03;4897355;29;20096;-77
2023/07/29 10:06:10;;;;;;;4.00;2.90;;;;;;;28.65;48.19;99074.13;4897216;29;20028;-77
2023/07/29 10:08:39;;;;;;;4.63;3.05;;;;;;;28.67;48.08;99072.13;4897320;29;20403;-77
2023/07/29 10:11:06;;;;;;;3.45;2.60;;;;;;;28.68;48.03;99072.97;4897509;29;20383;-77
2023/07/29 10:13:33;;;;;;;4.03;3.13;;;;;;;28.68;48.11;99073.81;4896917;29;20064;-78
2023/07/29 10:15:58;;;;;;;3.58;2.58;;;;;;;28.70;47.97;99072.84;4897005;29;20032;-76
2023/07/29 10:18:24;;;;;;;4.10;3.00;;;;;;;28.71;48.40;99067.28;4896953;29;20029;-77
2023/07/29 10:20:52;;;;;;;4.03;3.13;;;;;;;28.73;48.02;99069.81;4897269;29;20427;-77
2023/07/29 10:23:18;;;;;;;4.28;3.15;;;;;;;28.74;48.02;99067.00;4897016;29;20414;-77
2023/07/29 10:25:49;;;;;;;3.78;2.78;;;;;;;28.77;48.22;99076.59;4896924;29;20450;-77
2023/07/29 10:28:18;;;;;;;4.35;2.92;;;;;;;28.78;48.30;99067.53;4896600;29;20088;-77
2023/07/29 10:30:44;;;;;;;3.80;2.60;;;;;;;28.78;47.92;99068.38;4885676;29;20036;-77
2023/07/29 10:33:10;;;;;;;3.90;2.92;;;;;;;28.81;48.01;99072.59;4887117;29;20020;-77
2023/07/29 10:35:37;;;;;;;4.57;3.35;;;;;;;28.82;48.07;99068.91;4896993;29;20150;-77
2023/07/29 10:38:04;;;;;;;3.92;2.72;;;;;;;28.83;47.90;99070.59;4891249;29;20029;-77
2023/07/29 10:40:45;;;;;;;3.70;2.80;;;;;;;28.85;48.01;99067.75;4896616;29;20070;-77
2023/07/29 10:43:12;;;;;;;3.90;2.80;;;;;;;28.86;48.25;99064.94;4896539;29;20036;-77
2023/07/29 10:45:39;;;;;;;4.93;2.75;;;;;;;28.87;48.32;99063.94;4896666;29;20393;-77
2023/07/29 10:48:11;;;;;;;3.78;2.90;;;;;;;28.88;48.16;99060.25;4896677;29;20525;-77
2023/07/29 10:50:37;;;;;;;3.55;2.45;;;;;;;28.90;48.29;99050.19;4896691;29;20021;-77
2023/07/29 10:53:03;;;;;;;4.40;3.00;;;;;;;28.91;48.08;99057.25;4896805;29;20028;-77
2023/07/29 10:55:31;;;;;;;3.85;2.35;;;;;;;28.92;47.86;99061.63;4891380;29;20486;-77
2023/07/29 10:58:13;;;;;;;3.75;2.80;;;;;;;28.94;48.19;99054.28;4895270;29;20036;-77
2023/07/29 11:00:41;;;;;;;4.13;2.80;;;;;;;28.96;48.06;99054.13;4896943;29;20016;-77
2023/07/29 11:03:07;;;;;;;4.25;2.88;;;;;;;28.99;48.03;99059.16;4895490;29;20048;-78
2023/07/29 11:06:04;;;;;;;3.75;2.67;;;;;;;28.99;48.06;99055.66;4896547;29;20029;-77
2023/07/29 11:08:31;;;;;;;4.10;2.78;;;;;;;29.00;48.08;99065.38;4889615;29;20037;-77
2023/07/29 11:11:03;;;;;;;3.72;2.80;;;;;;;29.01;48.08;99062.53;4896579;29;20111;-77
2023/07/29 11:13:29;;;;;;;3.50;2.47;;;;;;;29.03;48.08;99060.53;4896146;29;20401;-76
2023/07/29 11:15:58;;;;;;;5.07;3.03;;;;;;;29.05;48.09;99057.72;4896487;29;20035;-77
2023/07/29 11:18:28;;;;;;;3.80;2.83;;;;;;;29.06;47.74;99045.97;4896621;29;20032;-77
2023/07/29 11:20:55;;;;;;;4.30;2.97;;;;;;;29.09;47.87;99056.38;4891427;29;20025;-77
2023/07/29 11:23:26;;;;;;;4.10;2.92;;;;;;;29.11;48.00;99054.41;4895342;29;20033;-78
2023/07/29 11:25:52;;;;;;;4.20;3.10;;;;;;;29.11;48.39;99053.53;4898375;29;20469;-77
2023/07/29 11:28:18;;;;;;;4.20;2.72;;;;;;;29.13;48.16;99044.31;4900011;29;20485;-77
2023/07/29 11:30:43;;;;;;;3.75;2.78;;;;;;;29.15;48.03;99047.69;4900086;29;20039;-77